sensor_id;sensor_type;location;lat;lon;timestamp;pressure;altitude;pressure_sealevel;temperature;humidity
12219;BME280;6172;42.646;23.344;2023-03-31T00:01:25;94533.53;;;7.57;82.89
12219;BME280;6172;42.646;23.344;2023-03-31T00:03:53;94540.09;;;7.59;83.43
12219;BME280;6172;42.646;23.344;2023-03-31T00:06:31;94528.50;;;7.55;84.63
12219;BME280;6172;42.646;23.344;2023-03-31T00:09:05;94534.72;;;7.52;85.06
12219;BME280;6172;42.646;23.344;2023-03-31T00:11:34;94523.94;;;7.38;85.43
12219;BME280;6172;42.646;23.344;2023-03-31T00:14:02;94530.91;;;7.39;84.71
12219;BME280;6172;42.646;23.344;2023-03-31T00:16:31;94534.75;;;7.45;82.51
12219;BME280;6172;42.646;23.344;2023-03-31T00:19:00;94519.28;;;7.39;78.73
12219;BME280;6172;42.646;23.344;2023-03-31T00:21:30;94535.13;;;7.47;78.03
12219;BME280;6172;42.646;23.344;2023-03-31T00:24:00;94529.00;;;7.36;80.20
12219;BME280;6172;42.646;23.344;2023-03-31T00:26:29;94536.69;;;7.45;81.39
12219;BME280;6172;42.646;23.344;2023-03-31T00:28:57;94515.88;;;7.24;83.55
12219;BME280;6172;42.646;23.344;2023-03-31T00:31:25;94520.47;;;7.38;82.70
12219;BME280;6172;42.646;23.344;2023-03-31T00:33:52;94513.63;;;7.19;84.58
12219;BME280;6172;42.646;23.344;2023-03-31T00:36:21;94530.19;;;7.35;84.98
12219;BME280;6172;42.646;23.344;2023-03-31T00:38:53;94524.41;;;7.23;87.76
12219;BME280;6172;42.646;23.344;2023-03-31T00:41:20;94518.63;;;7.21;88.66
12219;BME280;6172;42.646;23.344;2023-03-31T00:44:09;94527.81;;;7.37;87.26
12219;BME280;6172;42.646;23.344;2023-03-31T00:46:41;94503.84;;;7.32;86.75
12219;BME280;6172;42.646;23.344;2023-03-31T00:49:16;94522.84;;;7.32;85.97
12219;BME280;6172;42.646;23.344;2023-03-31T00:51:50;94513.47;;;7.40;85.21
12219;BME280;6172;42.646;23.344;2023-03-31T00:54:20;94508.44;;;7.42;83.80
12219;BME280;6172;42.646;23.344;2023-03-31T00:56:52;94513.13;;;7.31;86.10
12219;BME280;6172;42.646;23.344;2023-03-31T00:59:26;94502.69;;;7.33;86.66
12219;BME280;6172;42.646;23.344;2023-03-31T01:01:59;94501.44;;;7.45;82.89
12219;BME280;6172;42.646;23.344;2023-03-31T01:04:37;94499.13;;;7.43;85.98
12219;BME280;6172;42.646;23.344;2023-03-31T01:07:10;94497.19;;;7.44;86.76
12219;BME280;6172;42.646;23.344;2023-03-31T01:09:43;94491.50;;;7.28;90.40
12219;BME280;6172;42.646;23.344;2023-03-31T01:12:12;94488.75;;;7.31;90.48
12219;BME280;6172;42.646;23.344;2023-03-31T01:14:43;94487.50;;;7.43;88.14
12219;BME280;6172;42.646;23.344;2023-03-31T01:17:10;94491.38;;;7.45;88.34
12219;BME280;6172;42.646;23.344;2023-03-31T01:19:55;94476.53;;;7.60;84.56
12219;BME280;6172;42.646;23.344;2023-03-31T01:22:48;94489.53;;;7.32;91.68
12219;BME280;6172;42.646;23.344;2023-03-31T01:25:55;94495.72;;;7.29;96.06
12219;BME280;6172;42.646;23.344;2023-03-31T01:28:37;94504.59;;;7.36;95.12
12219;BME280;6172;42.646;23.344;2023-03-31T01:31:42;94498.91;;;7.17;92.21
12219;BME280;6172;42.646;23.344;2023-03-31T01:34:41;94505.06;;;7.24;94.06
12219;BME280;6172;42.646;23.344;2023-03-31T01:37:47;94508.09;;;7.33;91.82
12219;BME280;6172;42.646;23.344;2023-03-31T01:40:48;94513.94;;;7.28;93.71
12219;BME280;6172;42.646;23.344;2023-03-31T01:43:22;94513.94;;;7.28;88.97
12219;BME280;6172;42.646;23.344;2023-03-31T01:45:56;94533.19;;;7.48;86.83
12219;BME280;6172;42.646;23.344;2023-03-31T01:48:32;94526.19;;;7.50;87.13
12219;BME280;6172;42.646;23.344;2023-03-31T01:51:05;94533.44;;;7.67;85.65
12219;BME280;6172;42.646;23.344;2023-03-31T01:53:43;94532.34;;;7.58;84.74
12219;BME280;6172;42.646;23.344;2023-03-31T01:56:21;94529.19;;;7.66;82.97
12219;BME280;6172;42.646;23.344;2023-03-31T01:58:55;94520.66;;;7.68;82.75
12219;BME280;6172;42.646;23.344;2023-03-31T02:01:27;94520.81;;;7.47;86.32
12219;BME280;6172;42.646;23.344;2023-03-31T02:03:57;94537.34;;;7.63;85.40
12219;BME280;6172;42.646;23.344;2023-03-31T02:06:31;94528.34;;;7.76;85.89
12219;BME280;6172;42.646;23.344;2023-03-31T02:09:03;94527.47;;;7.90;84.55
12219;BME280;6172;42.646;23.344;2023-03-31T02:11:35;94535.22;;;7.84;84.04
12219;BME280;6172;42.646;23.344;2023-03-31T02:14:09;94530.97;;;7.87;82.52
12219;BME280;6172;42.646;23.344;2023-03-31T02:16:42;94545.22;;;7.98;81.49
12219;BME280;6172;42.646;23.344;2023-03-31T02:19:14;94549.81;;;8.04;81.25
12219;BME280;6172;42.646;23.344;2023-03-31T02:21:44;94554.56;;;7.93;82.63
12219;BME280;6172;42.646;23.344;2023-03-31T02:24:14;94559.97;;;7.93;83.04
12219;BME280;6172;42.646;23.344;2023-03-31T02:26:48;94557.25;;;7.93;83.96
12219;BME280;6172;42.646;23.344;2023-03-31T02:29:18;94568.63;;;7.78;88.10
12219;BME280;6172;42.646;23.344;2023-03-31T02:31:48;94568.84;;;7.97;88.09
12219;BME280;6172;42.646;23.344;2023-03-31T02:34:18;94566.28;;;7.80;93.01
12219;BME280;6172;42.646;23.344;2023-03-31T02:36:46;94566.28;;;7.80;99.09
12219;BME280;6172;42.646;23.344;2023-03-31T02:39:17;94578.38;;;7.68;100.00
12219;BME280;6172;42.646;23.344;2023-03-31T02:41:47;94564.50;;;7.59;100.00
12219;BME280;6172;42.646;23.344;2023-03-31T02:44:15;94558.19;;;7.73;100.00
12219;BME280;6172;42.646;23.344;2023-03-31T02:46:54;94571.69;;;7.80;100.00
12219;BME280;6172;42.646;23.344;2023-03-31T02:49:23;94575.94;;;7.84;100.00
12219;BME280;6172;42.646;23.344;2023-03-31T02:52:18;94564.63;;;7.93;100.00
12219;BME280;6172;42.646;23.344;2023-03-31T02:55:10;94561.63;;;7.84;100.00
12219;BME280;6172;42.646;23.344;2023-03-31T02:58:01;94541.50;;;7.74;100.00
12219;BME280;6172;42.646;23.344;2023-03-31T03:00:47;94546.09;;;7.84;100.00
12219;BME280;6172;42.646;23.344;2023-03-31T03:03:28;94542.88;;;8.00;100.00
12219;BME280;6172;42.646;23.344;2023-03-31T03:06:05;94527.34;;;8.00;100.00
12219;BME280;6172;42.646;23.344;2023-03-31T03:08:53;94527.72;;;8.02;100.00
12219;BME280;6172;42.646;23.344;2023-03-31T03:11:25;94520.31;;;8.06;100.00
12219;BME280;6172;42.646;23.344;2023-03-31T03:14:04;94515.22;;;8.16;100.00
12219;BME280;6172;42.646;23.344;2023-03-31T03:16:38;94506.69;;;8.13;100.00
12219;BME280;6172;42.646;23.344;2023-03-31T03:19:06;94509.31;;;8.24;100.00
12219;BME280;6172;42.646;23.344;2023-03-31T03:21:34;94503.84;;;8.28;100.00
12219;BME280;6172;42.646;23.344;2023-03-31T03:24:01;94503.84;;;8.28;100.00
12219;BME280;6172;42.646;23.344;2023-03-31T03:26:27;94502.56;;;8.43;100.00
12219;BME280;6172;42.646;23.344;2023-03-31T03:28:55;94503.28;;;8.47;100.00
12219;BME280;6172;42.646;23.344;2023-03-31T03:31:26;94500.97;;;8.45;100.00
12219;BME280;6172;42.646;23.344;2023-03-31T03:33:55;94499.03;;;8.46;100.00
12219;BME280;6172;42.646;23.344;2023-03-31T03:36:22;94499.38;;;8.48;100.00
12219;BME280;6172;42.646;23.344;2023-03-31T03:38:49;94500.63;;;8.43;100.00
12219;BME280;6172;42.646;23.344;2023-03-31T03:41:19;94494.34;;;8.50;100.00
12219;BME280;6172;42.646;23.344;2023-03-31T03:43:49;94495.88;;;8.51;100.00
12219;BME280;6172;42.646;23.344;2023-03-31T03:46:17;94486.66;;;8.45;100.00
12219;BME280;6172;42.646;23.344;2023-03-31T03:48:46;94489.53;;;8.61;100.00
12219;BME280;6172;42.646;23.344;2023-03-31T03:51:14;94489.72;;;8.47;100.00
12219;BME280;6172;42.646;23.344;2023-03-31T03:53:42;94484.00;;;7.93;100.00
12219;BME280;6172;42.646;23.344;2023-03-31T03:56:09;94486.31;;;7.47;100.00
12219;BME280;6172;42.646;23.344;2023-03-31T03:58:36;94495.13;;;7.58;100.00
12219;BME280;6172;42.646;23.344;2023-03-31T04:01:03;94493.03;;;7.29;100.00
12219;BME280;6172;42.646;23.344;2023-03-31T04:03:30;94507.00;;;7.20;100.00
12219;BME280;6172;42.646;23.344;2023-03-31T04:05:59;94507.41;;;7.19;100.00
12219;BME280;6172;42.646;23.344;2023-03-31T04:08:26;94511.59;;;7.30;100.00
12219;BME280;6172;42.646;23.344;2023-03-31T04:10:53;94505.34;;;7.44;100.00
12219;BME280;6172;42.646;23.344;2023-03-31T04:13:20;94502.53;;;7.54;100.00
12219;BME280;6172;42.646;23.344;2023-03-31T04:15:47;94499.41;;;7.59;100.00
12219;BME280;6172;42.646;23.344;2023-03-31T04:18:14;94505.91;;;7.72;100.00
12219;BME280;6172;42.646;23.344;2023-03-31T04:20:48;94513.69;;;7.67;100.00
12219;BME280;6172;42.646;23.344;2023-03-31T04:23:20;94510.81;;;7.88;100.00
12219;BME280;6172;42.646;23.344;2023-03-31T04:25:51;94516.25;;;7.84;100.00
12219;BME280;6172;42.646;23.344;2023-03-31T04:28:18;94511.22;;;7.83;100.00
12219;BME280;6172;42.646;23.344;2023-03-31T04:30:46;94511.13;;;7.93;100.00
12219;BME280;6172;42.646;23.344;2023-03-31T04:33:13;94503.03;;;7.90;100.00
12219;BME280;6172;42.646;23.344;2023-03-31T04:35:42;94514.66;;;7.90;100.00
12219;BME280;6172;42.646;23.344;2023-03-31T04:38:14;94510.75;;;7.91;100.00
12219;BME280;6172;42.646;23.344;2023-03-31T04:40:45;94503.00;;;7.93;100.00
12219;BME280;6172;42.646;23.344;2023-03-31T04:43:13;94495.38;;;7.78;100.00
12219;BME280;6172;42.646;23.344;2023-03-31T04:45:40;94502.69;;;7.84;100.00
12219;BME280;6172;42.646;23.344;2023-03-31T04:48:07;94494.97;;;7.79;100.00
12219;BME280;6172;42.646;23.344;2023-03-31T04:50:34;94496.84;;;7.89;100.00
12219;BME280;6172;42.646;23.344;2023-03-31T04:53:01;94496.69;;;7.56;100.00
12219;BME280;6172;42.646;23.344;2023-03-31T04:55:28;94489.38;;;7.53;100.00
12219;BME280;6172;42.646;23.344;2023-03-31T04:57:57;94500.16;;;7.63;100.00
12219;BME280;6172;42.646;23.344;2023-03-31T05:00:24;94483.59;;;7.51;100.00
12219;BME280;6172;42.646;23.344;2023-03-31T05:02:53;94491.50;;;7.79;100.00
12219;BME280;6172;42.646;23.344;2023-03-31T05:05:20;94486.31;;;7.95;100.00
12219;BME280;6172;42.646;23.344;2023-03-31T05:07:47;94480.41;;;8.03;100.00
12219;BME280;6172;42.646;23.344;2023-03-31T05:10:14;94478.72;;;7.79;100.00
12219;BME280;6172;42.646;23.344;2023-03-31T05:12:42;94474.16;;;7.69;100.00
12219;BME280;6172;42.646;23.344;2023-03-31T05:15:11;94475.50;;;7.44;100.00
12219;BME280;6172;42.646;23.344;2023-03-31T05:17:38;94475.13;;;7.42;100.00
12219;BME280;6172;42.646;23.344;2023-03-31T05:20:06;94472.13;;;7.26;100.00
12219;BME280;6172;42.646;23.344;2023-03-31T05:22:35;94469.25;;;7.50;100.00
12219;BME280;6172;42.646;23.344;2023-03-31T05:25:04;94457.22;;;7.55;100.00
12219;BME280;6172;42.646;23.344;2023-03-31T05:27:35;94444.16;;;7.39;100.00
12219;BME280;6172;42.646;23.344;2023-03-31T05:30:19;94441.06;;;7.41;100.00
12219;BME280;6172;42.646;23.344;2023-03-31T05:32:51;94456.53;;;7.40;100.00
12219;BME280;6172;42.646;23.344;2023-03-31T05:35:20;94459.19;;;7.47;100.00
12219;BME280;6172;42.646;23.344;2023-03-31T05:37:48;94449.72;;;7.69;100.00
12219;BME280;6172;42.646;23.344;2023-03-31T05:40:15;94451.22;;;8.14;100.00
12219;BME280;6172;42.646;23.344;2023-03-31T05:42:43;94447.97;;;8.30;100.00
12219;BME280;6172;42.646;23.344;2023-03-31T05:45:21;94450.06;;;8.53;100.00
12219;BME280;6172;42.646;23.344;2023-03-31T05:47:48;94452.59;;;8.33;100.00
12219;BME280;6172;42.646;23.344;2023-03-31T05:50:15;94451.13;;;8.25;100.00
12219;BME280;6172;42.646;23.344;2023-03-31T05:52:45;94448.53;;;8.52;100.00
12219;BME280;6172;42.646;23.344;2023-03-31T05:55:13;94447.03;;;8.47;100.00
12219;BME280;6172;42.646;23.344;2023-03-31T05:57:40;94449.63;;;8.21;100.00
12219;BME280;6172;42.646;23.344;2023-03-31T06:00:10;94462.47;;;8.54;100.00
12219;BME280;6172;42.646;23.344;2023-03-31T06:02:42;94466.19;;;8.30;100.00
12219;BME280;6172;42.646;23.344;2023-03-31T06:05:09;94467.63;;;8.45;100.00
12219;BME280;6172;42.646;23.344;2023-03-31T06:07:36;94460.03;;;8.63;100.00
12219;BME280;6172;42.646;23.344;2023-03-31T06:10:04;94466.50;;;8.72;100.00
12219;BME280;6172;42.646;23.344;2023-03-31T06:12:35;94467.88;;;8.57;100.00
12219;BME280;6172;42.646;23.344;2023-03-31T06:15:03;94464.94;;;8.75;100.00
12219;BME280;6172;42.646;23.344;2023-03-31T06:17:33;94476.16;;;8.77;100.00
12219;BME280;6172;42.646;23.344;2023-03-31T06:20:02;94470.00;;;8.73;100.00
12219;BME280;6172;42.646;23.344;2023-03-31T06:22:30;94466.19;;;8.67;100.00
12219;BME280;6172;42.646;23.344;2023-03-31T06:24:57;94456.84;;;8.68;100.00
12219;BME280;6172;42.646;23.344;2023-03-31T06:27:24;94459.50;;;8.45;100.00
12219;BME280;6172;42.646;23.344;2023-03-31T06:29:51;94467.25;;;8.76;100.00
12219;BME280;6172;42.646;23.344;2023-03-31T06:32:18;94471.00;;;8.86;100.00
12219;BME280;6172;42.646;23.344;2023-03-31T06:34:45;94461.31;;;8.85;100.00
12219;BME280;6172;42.646;23.344;2023-03-31T06:37:15;94462.53;;;9.10;100.00
12219;BME280;6172;42.646;23.344;2023-03-31T06:39:44;94467.09;;;9.17;100.00
12219;BME280;6172;42.646;23.344;2023-03-31T06:42:13;94461.31;;;9.91;100.00
12219;BME280;6172;42.646;23.344;2023-03-31T06:44:40;94449.13;;;9.99;100.00
12219;BME280;6172;42.646;23.344;2023-03-31T06:47:10;94461.28;;;9.68;100.00
12219;BME280;6172;42.646;23.344;2023-03-31T06:49:39;94464.47;;;9.86;100.00
12219;BME280;6172;42.646;23.344;2023-03-31T06:52:06;94473.91;;;10.27;100.00
12219;BME280;6172;42.646;23.344;2023-03-31T06:54:35;94468.78;;;10.53;100.00
12219;BME280;6172;42.646;23.344;2023-03-31T06:57:02;94453.81;;;10.61;100.00
12219;BME280;6172;42.646;23.344;2023-03-31T06:59:29;94475.63;;;10.18;100.00
12219;BME280;6172;42.646;23.344;2023-03-31T07:01:56;94464.06;;;10.33;100.00
12219;BME280;6172;42.646;23.344;2023-03-31T07:04:23;94461.78;;;10.91;100.00
12219;BME280;6172;42.646;23.344;2023-03-31T07:06:50;94444.59;;;11.29;100.00
12219;BME280;6172;42.646;23.344;2023-03-31T07:09:17;94437.00;;;11.56;100.00
12219;BME280;6172;42.646;23.344;2023-03-31T07:11:49;94429.75;;;12.26;96.67
12219;BME280;6172;42.646;23.344;2023-03-31T07:14:18;94411.69;;;13.15;86.47
12219;BME280;6172;42.646;23.344;2023-03-31T07:16:44;94402.25;;;13.91;74.10
12219;BME280;6172;42.646;23.344;2023-03-31T07:19:12;94404.03;;;15.18;66.84
12219;BME280;6172;42.646;23.344;2023-03-31T07:21:39;94395.22;;;15.62;60.21
12219;BME280;6172;42.646;23.344;2023-03-31T07:24:07;94384.31;;;15.89;58.29
12219;BME280;6172;42.646;23.344;2023-03-31T07:26:34;94378.28;;;16.30;55.76
12219;BME280;6172;42.646;23.344;2023-03-31T07:29:10;94379.06;;;16.58;53.18
12219;BME280;6172;42.646;23.344;2023-03-31T07:31:37;94372.03;;;16.30;53.39
12219;BME280;6172;42.646;23.344;2023-03-31T07:34:05;94384.72;;;16.54;52.97
12219;BME280;6172;42.646;23.344;2023-03-31T07:36:37;94379.16;;;17.08;52.22
12219;BME280;6172;42.646;23.344;2023-03-31T07:39:05;94383.69;;;17.39;50.84
12219;BME280;6172;42.646;23.344;2023-03-31T07:41:32;94386.47;;;17.29;51.33
12219;BME280;6172;42.646;23.344;2023-03-31T07:43:59;94374.16;;;16.62;51.05
12219;BME280;6172;42.646;23.344;2023-03-31T07:46:28;94364.78;;;15.48;52.73
12219;BME280;6172;42.646;23.344;2023-03-31T07:48:55;94359.19;;;15.51;55.33
12219;BME280;6172;42.646;23.344;2023-03-31T07:51:24;94362.72;;;16.27;52.82
12219;BME280;6172;42.646;23.344;2023-03-31T07:53:52;94360.91;;;16.69;51.59
12219;BME280;6172;42.646;23.344;2023-03-31T07:56:19;94349.56;;;18.25;46.01
12219;BME280;6172;42.646;23.344;2023-03-31T07:58:46;94355.47;;;18.32;42.87
12219;BME280;6172;42.646;23.344;2023-03-31T08:01:14;94357.44;;;19.08;40.69
12219;BME280;6172;42.646;23.344;2023-03-31T08:03:45;94343.63;;;18.93;40.27
12219;BME280;6172;42.646;23.344;2023-03-31T08:06:17;94343.50;;;19.17;39.65
12219;BME280;6172;42.646;23.344;2023-03-31T08:08:44;94337.13;;;19.54;37.78
12219;BME280;6172;42.646;23.344;2023-03-31T08:11:13;94332.69;;;19.77;37.53
12219;BME280;6172;42.646;23.344;2023-03-31T08:13:41;94328.31;;;19.71;38.09
12219;BME280;6172;42.646;23.344;2023-03-31T08:16:11;94315.38;;;19.62;36.64
12219;BME280;6172;42.646;23.344;2023-03-31T08:18:40;94333.50;;;18.76;37.47
12219;BME280;6172;42.646;23.344;2023-03-31T08:21:08;94342.81;;;18.49;37.93
12219;BME280;6172;42.646;23.344;2023-03-31T08:23:35;94342.16;;;17.84;38.80
12219;BME280;6172;42.646;23.344;2023-03-31T08:26:12;94319.56;;;17.71;39.47
12219;BME280;6172;42.646;23.344;2023-03-31T08:28:39;94323.09;;;18.42;38.11
12219;BME280;6172;42.646;23.344;2023-03-31T08:31:07;94322.44;;;18.61;36.82
12219;BME280;6172;42.646;23.344;2023-03-31T08:33:35;94321.03;;;18.80;36.89
12219;BME280;6172;42.646;23.344;2023-03-31T08:36:04;94325.63;;;19.12;36.33
12219;BME280;6172;42.646;23.344;2023-03-31T08:38:34;94309.22;;;18.65;36.01
12219;BME280;6172;42.646;23.344;2023-03-31T08:41:05;94311.41;;;18.61;36.76
12219;BME280;6172;42.646;23.344;2023-03-31T08:43:38;94324.59;;;18.19;37.17
12219;BME280;6172;42.646;23.344;2023-03-31T08:46:09;94336.03;;;18.27;37.50
12219;BME280;6172;42.646;23.344;2023-03-31T08:48:41;94330.00;;;18.37;37.74
12219;BME280;6172;42.646;23.344;2023-03-31T08:51:17;94333.31;;;18.94;35.91
12219;BME280;6172;42.646;23.344;2023-03-31T08:53:51;94326.94;;;19.46;34.65
12219;BME280;6172;42.646;23.344;2023-03-31T08:56:21;94321.09;;;19.24;35.05
12219;BME280;6172;42.646;23.344;2023-03-31T08:58:51;94315.31;;;18.84;35.39
12219;BME280;6172;42.646;23.344;2023-03-31T09:01:24;94308.47;;;18.65;35.49
12219;BME280;6172;42.646;23.344;2023-03-31T09:04:13;94318.28;;;18.04;35.78
12219;BME280;6172;42.646;23.344;2023-03-31T09:06:51;94303.59;;;17.18;37.25
12219;BME280;6172;42.646;23.344;2023-03-31T09:09:31;94303.25;;;17.25;37.91
12219;BME280;6172;42.646;23.344;2023-03-31T09:12:09;94302.06;;;17.08;38.06
12219;BME280;6172;42.646;23.344;2023-03-31T09:14:40;94304.00;;;16.57;39.14
12219;BME280;6172;42.646;23.344;2023-03-31T09:17:17;94295.63;;;16.34;39.06
12219;BME280;6172;42.646;23.344;2023-03-31T09:19:51;94312.00;;;16.19;39.98
12219;BME280;6172;42.646;23.344;2023-03-31T09:22:23;94290.16;;;16.16;40.08
12219;BME280;6172;42.646;23.344;2023-03-31T09:24:57;94293.91;;;16.63;39.34
12219;BME280;6172;42.646;23.344;2023-03-31T09:27:26;94288.84;;;17.21;38.99
12219;BME280;6172;42.646;23.344;2023-03-31T09:29:57;94303.34;;;17.73;37.31
12219;BME280;6172;42.646;23.344;2023-03-31T09:32:28;94299.16;;;17.12;37.33
12219;BME280;6172;42.646;23.344;2023-03-31T09:34:59;94295.06;;;17.73;36.88
12219;BME280;6172;42.646;23.344;2023-03-31T09:37:30;94296.94;;;17.67;36.98
12219;BME280;6172;42.646;23.344;2023-03-31T09:40:02;94293.66;;;17.45;37.68
12219;BME280;6172;42.646;23.344;2023-03-31T09:42:32;94298.41;;;17.77;36.69
12219;BME280;6172;42.646;23.344;2023-03-31T09:45:00;94302.16;;;18.12;36.21
12219;BME280;6172;42.646;23.344;2023-03-31T09:47:31;94293.94;;;18.41;35.97
12219;BME280;6172;42.646;23.344;2023-03-31T09:50:04;94294.53;;;18.07;36.41
12219;BME280;6172;42.646;23.344;2023-03-31T09:52:34;94297.31;;;17.83;36.33
12219;BME280;6172;42.646;23.344;2023-03-31T09:55:15;94294.34;;;18.10;36.41
12219;BME280;6172;42.646;23.344;2023-03-31T09:57:44;94283.16;;;18.52;35.50
12219;BME280;6172;42.646;23.344;2023-03-31T10:00:14;94272.38;;;19.12;35.05
12219;BME280;6172;42.646;23.344;2023-03-31T10:02:43;94274.28;;;18.77;34.78
12219;BME280;6172;42.646;23.344;2023-03-31T10:05:25;94272.75;;;18.47;35.84
12219;BME280;6172;42.646;23.344;2023-03-31T10:08:18;94277.50;;;18.61;35.16
12219;BME280;6172;42.646;23.344;2023-03-31T10:10:54;94269.47;;;18.34;35.79
12219;BME280;6172;42.646;23.344;2023-03-31T10:13:23;94267.31;;;18.38;36.22
12219;BME280;6172;42.646;23.344;2023-03-31T10:15:52;94252.41;;;19.02;35.67
12219;BME280;6172;42.646;23.344;2023-03-31T10:18:19;94249.03;;;19.62;34.83
12219;BME280;6172;42.646;23.344;2023-03-31T10:20:49;94248.94;;;19.57;34.39
12219;BME280;6172;42.646;23.344;2023-03-31T10:23:22;94247.03;;;19.63;34.60
12219;BME280;6172;42.646;23.344;2023-03-31T10:25:51;94237.41;;;19.58;34.11
12219;BME280;6172;42.646;23.344;2023-03-31T10:28:20;94233.41;;;19.59;34.49
12219;BME280;6172;42.646;23.344;2023-03-31T10:30:50;94236.31;;;19.70;33.94
12219;BME280;6172;42.646;23.344;2023-03-31T10:33:21;94239.25;;;19.46;34.13
12219;BME280;6172;42.646;23.344;2023-03-31T10:35:54;94240.75;;;19.27;34.30
12219;BME280;6172;42.646;23.344;2023-03-31T10:38:25;94232.94;;;18.97;35.08
12219;BME280;6172;42.646;23.344;2023-03-31T10:40:57;94238.31;;;19.70;34.36
12219;BME280;6172;42.646;23.344;2023-03-31T10:43:27;94230.53;;;20.08;33.41
12219;BME280;6172;42.646;23.344;2023-03-31T10:45:56;94223.16;;;19.45;33.60
12219;BME280;6172;42.646;23.344;2023-03-31T10:48:26;94218.63;;;19.62;33.10
12219;BME280;6172;42.646;23.344;2023-03-31T10:50:53;94222.66;;;19.12;34.56
12219;BME280;6172;42.646;23.344;2023-03-31T10:53:20;94220.44;;;19.30;35.13
12219;BME280;6172;42.646;23.344;2023-03-31T10:56:12;94211.56;;;19.41;34.07
12219;BME280;6172;42.646;23.344;2023-03-31T10:58:52;94220.63;;;18.78;34.87
12219;BME280;6172;42.646;23.344;2023-03-31T11:01:29;94216.22;;;18.42;34.86
12219;BME280;6172;42.646;23.344;2023-03-31T11:04:15;94214.38;;;17.72;36.30
12219;BME280;6172;42.646;23.344;2023-03-31T11:06:56;94213.22;;;17.31;36.99
12219;BME280;6172;42.646;23.344;2023-03-31T11:09:41;94207.19;;;17.42;37.04
12219;BME280;6172;42.646;23.344;2023-03-31T11:12:17;94215.56;;;17.48;36.68
12219;BME280;6172;42.646;23.344;2023-03-31T11:14:59;94209.31;;;17.23;37.33
12219;BME280;6172;42.646;23.344;2023-03-31T11:17:48;94198.69;;;17.55;37.00
12219;BME280;6172;42.646;23.344;2023-03-31T11:20:27;94193.28;;;17.84;36.39
12219;BME280;6172;42.646;23.344;2023-03-31T11:23:09;94191.66;;;17.54;37.02
12219;BME280;6172;42.646;23.344;2023-03-31T11:25:49;94192.38;;;17.40;37.45
12219;BME280;6172;42.646;23.344;2023-03-31T11:28:36;94179.75;;;17.48;37.29
12219;BME280;6172;42.646;23.344;2023-03-31T11:31:18;94161.97;;;17.58;37.44
12219;BME280;6172;42.646;23.344;2023-03-31T11:34:01;94169.28;;;17.61;37.29
12219;BME280;6172;42.646;23.344;2023-03-31T11:37:04;94163.75;;;17.84;36.97
12219;BME280;6172;42.646;23.344;2023-03-31T11:39:50;94161.56;;;17.88;36.70
12219;BME280;6172;42.646;23.344;2023-03-31T11:42:25;94154.50;;;17.73;37.23
12219;BME280;6172;42.646;23.344;2023-03-31T11:45:00;94164.16;;;17.92;36.86
12219;BME280;6172;42.646;23.344;2023-03-31T11:47:32;94150.19;;;18.10;36.88
12219;BME280;6172;42.646;23.344;2023-03-31T11:50:08;94156.47;;;18.25;36.86
12219;BME280;6172;42.646;23.344;2023-03-31T11:52:55;94153.16;;;17.68;37.32
12219;BME280;6172;42.646;23.344;2023-03-31T11:55:27;94143.88;;;17.80;37.51
12219;BME280;6172;42.646;23.344;2023-03-31T11:58:01;94146.38;;;18.07;37.39
12219;BME280;6172;42.646;23.344;2023-03-31T12:00:33;94134.53;;;17.78;38.14
12219;BME280;6172;42.646;23.344;2023-03-31T12:03:08;94133.34;;;17.55;37.86
12219;BME280;6172;42.646;23.344;2023-03-31T12:05:39;94123.44;;;17.49;37.97
12219;BME280;6172;42.646;23.344;2023-03-31T12:08:13;94124.88;;;17.20;38.48
12219;BME280;6172;42.646;23.344;2023-03-31T12:10:44;94125.06;;;17.17;39.22
12219;BME280;6172;42.646;23.344;2023-03-31T12:13:33;94122.22;;;17.50;39.06
12219;BME280;6172;42.646;23.344;2023-03-31T12:16:09;94120.03;;;17.54;38.77
12219;BME280;6172;42.646;23.344;2023-03-31T12:18:41;94117.13;;;17.57;38.56
12219;BME280;6172;42.646;23.344;2023-03-31T12:21:11;94118.13;;;17.83;38.58
12219;BME280;6172;42.646;23.344;2023-03-31T12:23:42;94116.69;;;17.88;38.26
12219;BME280;6172;42.646;23.344;2023-03-31T12:26:22;94117.69;;;17.38;38.43
12219;BME280;6172;42.646;23.344;2023-03-31T12:28:56;94115.09;;;16.96;39.61
12219;BME280;6172;42.646;23.344;2023-03-31T12:31:28;94108.41;;;17.11;40.75
12219;BME280;6172;42.646;23.344;2023-03-31T12:33:59;94110.22;;;17.14;40.50
12219;BME280;6172;42.646;23.344;2023-03-31T12:36:36;94113.25;;;16.93;39.94
12219;BME280;6172;42.646;23.344;2023-03-31T12:39:18;94099.69;;;16.89;39.99
12219;BME280;6172;42.646;23.344;2023-03-31T12:42:11;94108.88;;;17.33;39.32
12219;BME280;6172;42.646;23.344;2023-03-31T12:44:51;94103.38;;;17.72;38.72
12219;BME280;6172;42.646;23.344;2023-03-31T12:47:45;94089.91;;;18.03;38.19
12219;BME280;6172;42.646;23.344;2023-03-31T12:50:31;94080.56;;;18.44;37.74
12219;BME280;6172;42.646;23.344;2023-03-31T12:53:07;94074.00;;;18.41;37.14
12219;BME280;6172;42.646;23.344;2023-03-31T12:55:39;94072.38;;;18.35;37.19
12219;BME280;6172;42.646;23.344;2023-03-31T12:58:41;94068.97;;;18.11;37.83
12219;BME280;6172;42.646;23.344;2023-03-31T13:01:11;94056.66;;;18.41;37.79
12219;BME280;6172;42.646;23.344;2023-03-31T13:03:49;94053.31;;;18.51;37.43
12219;BME280;6172;42.646;23.344;2023-03-31T13:06:55;94047.34;;;18.24;37.47
12219;BME280;6172;42.646;23.344;2023-03-31T13:09:56;94033.94;;;18.46;37.69
12219;BME280;6172;42.646;23.344;2023-03-31T13:12:25;94030.81;;;18.73;36.81
12219;BME280;6172;42.646;23.344;2023-03-31T13:14:57;94027.00;;;18.70;36.95
12219;BME280;6172;42.646;23.344;2023-03-31T13:17:27;94019.22;;;18.69;36.80
12219;BME280;6172;42.646;23.344;2023-03-31T13:20:14;94014.59;;;18.80;37.15
12219;BME280;6172;42.646;23.344;2023-03-31T13:22:47;93996.44;;;18.94;36.61
12219;BME280;6172;42.646;23.344;2023-03-31T13:25:31;93990.03;;;19.02;36.07
12219;BME280;6172;42.646;23.344;2023-03-31T13:28:09;93981.09;;;18.53;37.87
12219;BME280;6172;42.646;23.344;2023-03-31T13:30:48;93968.50;;;18.32;38.48
12219;BME280;6172;42.646;23.344;2023-03-31T13:33:19;93968.53;;;18.17;39.21